Time;durP1;ratioP1;P1;durP2;ratioP2;P2;SDS_P1;SDS_P2;PMS_P1;PMS_P2;Temp;Humidity;BMP_temperature;BMP_pressure;BME280_temperature;BME280_humidity;BME280_pressure;Samples;Min_cycle;Max_cycle;Signal;HPM_P1;HPM_P2
2024/01/26 00:00:14;;;;;;;18.53;12.23;;;;;;;10.81;94.38;101664.44;4899122;29;20231;-73
2024/01/26 00:02:42;;;;;;;16.90;10.73;;;;;;;10.79;94.56;101669.00;4896220;29;20282;-72
2024/01/26 00:05:10;;;;;;;19.80;11.87;;;;;;;10.83;93.89;101663.31;4893857;29;20226;-72
2024/01/26 00:07:38;;;;;;;20.20;13.20;;;;;;;10.82;93.37;101650.16;4896753;29;20298;-74
2024/01/26 00:10:07;;;;;;;23.17;12.93;;;;;;;10.75;93.69;101660.44;4895666;29;20221;-73
2024/01/26 00:12:36;;;;;;;21.93;13.13;;;;;;;10.71;94.34;101659.00;4896709;29;20666;-73
2024/01/26 00:15:04;;;;;;;20.67;13.47;;;;;;;10.65;94.89;101645.34;4897351;29;20843;-73
2024/01/26 00:17:33;;;;;;;22.67;14.47;;;;;;;10.60;95.62;101640.41;4896861;29;20278;-73
2024/01/26 00:20:01;;;;;;;21.43;12.77;;;;;;;10.57;95.97;101644.16;4897045;29;20210;-74
2024/01/26 00:22:29;;;;;;;22.10;13.50;;;;;;;10.64;95.63;101649.84;4898192;29;20218;-74
2024/01/26 00:24:57;;;;;;;20.93;12.20;;;;;;;10.76;94.93;101650.66;4898255;29;20935;-73
2024/01/26 00:27:25;;;;;;;21.00;12.90;;;;;;;10.91;93.68;101655.59;4897063;29;20285;-74
2024/01/26 00:29:53;;;;;;;21.43;12.67;;;;;;;10.97;92.75;101645.47;4895727;29;20220;-73
2024/01/26 00:32:21;;;;;;;19.03;12.30;;;;;;;11.05;92.14;101643.91;4897495;29;20342;-73
2024/01/26 00:34:50;;;;;;;20.27;13.13;;;;;;;11.15;91.32;101644.00;4894766;29;20293;-73
2024/01/26 00:37:18;;;;;;;20.27;12.83;;;;;;;11.15;90.77;101649.31;4896894;29;20222;-73
2024/01/26 00:39:45;;;;;;;21.53;14.20;;;;;;;11.10;90.95;101648.81;4897981;29;20243;-73
2024/01/26 00:42:13;;;;;;;24.07;14.23;;;;;;;11.04;91.34;101652.81;4898319;29;20227;-73
2024/01/26 00:44:41;;;;;;;25.37;14.80;;;;;;;10.94;92.06;101643.91;4898395;29;20247;-74
2024/01/26 00:47:09;;;;;;;21.93;13.77;;;;;;;10.86;92.97;101641.88;4898914;29;20302;-73
2024/01/26 00:49:37;;;;;;;20.50;13.23;;;;;;;10.87;93.38;101635.59;4897561;29;20589;-74
2024/01/26 00:52:17;;;;;;;20.53;12.80;;;;;;;10.89;93.21;101636.31;4899140;29;20234;-73
2024/01/26 00:54:45;;;;;;;23.50;14.47;;;;;;;10.81;93.68;101633.44;4893962;29;20219;-73
2024/01/26 00:57:13;;;;;;;23.73;14.30;;;;;;;10.73;94.79;101630.53;4897739;29;20226;-73
2024/01/26 00:59:41;;;;;;;24.43;15.30;;;;;;;10.62;96.07;101617.28;4896317;29;20333;-73
2024/01/26 01:02:09;;;;;;;25.80;15.37;;;;;;;10.66;96.39;101629.31;4897985;29;20218;-74
2024/01/26 01:04:37;;;;;;;23.73;14.90;;;;;;;10.66;96.17;101631.97;4895410;29;20227;-73
2024/01/26 01:07:05;;;;;;;21.83;12.93;;;;;;;10.59;96.80;101625.47;4900497;29;20297;-74
2024/01/26 01:09:34;;;;;;;23.13;14.20;;;;;;;10.59;96.90;101621.97;4898335;29;20214;-72
2024/01/26 01:12:02;;;;;;;23.43;13.80;;;;;;;10.59;97.19;101625.47;4899159;29;20238;-73
2024/01/26 01:14:30;;;;;;;26.73;14.93;;;;;;;10.69;96.93;101634.41;4901022;29;20219;-73
2024/01/26 01:16:58;;;;;;;23.87;14.30;;;;;;;10.78;95.65;101624.88;4896697;29;20222;-73
2024/01/26 01:19:26;;;;;;;22.53;13.80;;;;;;;10.89;95.00;101627.53;4899195;29;20297;-73
2024/01/26 01:21:56;;;;;;;24.60;15.10;;;;;;;10.91;94.03;101623.75;4898703;29;20771;-74
2024/01/26 01:24:24;;;;;;;24.87;14.97;;;;;;;10.84;94.26;101630.53;4902170;29;20234;-73
2024/01/26 01:26:53;;;;;;;21.77;14.17;;;;;;;10.80;94.93;101621.13;4898389;29;20211;-74
2024/01/26 01:29:21;;;;;;;23.60;15.20;;;;;;;10.82;94.63;101613.88;4899048;29;20317;-73
2024/01/26 01:31:49;;;;;;;26.70;15.23;;;;;;;10.84;94.60;101605.78;4898250;29;20242;-73
2024/01/26 01:34:17;;;;;;;25.43;14.67;;;;;;;10.82;94.35;101603.25;4896938;29;20577;-73
2024/01/26 01:36:45;;;;;;;24.50;14.30;;;;;;;10.71;95.01;101605.94;4899700;29;20216;-73
2024/01/26 01:39:13;;;;;;;22.50;13.70;;;;;;;10.64;96.17;101615.34;4896108;29;20221;-73
2024/01/26 01:41:41;;;;;;;28.27;16.73;;;;;;;10.66;96.49;101608.09;4896470;29;20217;-73
2024/01/26 01:44:10;;;;;;;22.80;13.67;;;;;;;10.59;96.96;101606.06;4897844;29;20254;-73
2024/01/26 01:46:38;;;;;;;22.53;14.07;;;;;;;10.58;97.22;101599.91;4897490;29;20302;-73
2024/01/26 01:49:05;;;;;;;24.50;15.63;;;;;;;10.56;97.42;101607.13;4899797;29;20279;-73
2024/01/26 01:51:36;;;;;;;25.40;14.20;;;;;;;10.49;98.02;101603.28;4895959;29;20220;-73
2024/01/26 01:54:04;;;;;;;24.03;14.73;;;;;;;10.44;99.14;101608.09;4899486;29;20922;-73
2024/01/26 01:56:34;;;;;;;23.70;14.50;;;;;;;10.42;99.74;101602.06;4895632;29;20397;-73
2024/01/26 01:59:04;;;;;;;24.97;14.73;;;;;;;10.45;99.66;101594.72;4899327;29;20216;-73
2024/01/26 02:01:33;;;;;;;27.07;13.90;;;;;;;10.42;99.88;101594.97;4898873;29;20214;-74
2024/01/26 02:04:02;;;;;;;22.50;13.07;;;;;;;10.43;100.00;101603.75;4899111;29;20212;-73
2024/01/26 02:06:30;;;;;;;21.17;13.33;;;;;;;10.48;100.00;101609.53;4900894;29;20221;-73
2024/01/26 02:08:58;;;;;;;23.10;13.73;;;;;;;10.54;99.48;101601.13;4897748;29;20274;-73
2024/01/26 02:11:26;;;;;;;22.27;12.70;;;;;;;10.51;99.45;101601.34;4899211;29;20742;-73
2024/01/26 02:13:54;;;;;;;21.43;13.33;;;;;;;10.43;99.86;101593.16;4898748;29;20232;-73
2024/01/26 02:16:21;;;;;;;26.37;12.83;;;;;;;10.51;100.00;101577.47;4899537;29;20289;-73
2024/01/26 02:18:50;;;;;;;23.80;13.73;;;;;;;10.54;99.31;101590.50;4897652;29;20357;-73
2024/01/26 02:21:19;;;;;;;21.50;13.10;;;;;;;10.61;99.04;101591.72;4896172;29;20216;-73
2024/01/26 02:23:48;;;;;;;21.00;12.73;;;;;;;10.70;98.52;101587.50;4898939;29;20220;-73
2024/01/26 02:26:15;;;;;;;19.83;12.10;;;;;;;10.86;97.71;101585.28;4890587;29;20210;-73
2024/01/26 02:28:43;;;;;;;22.47;13.00;;;;;;;10.98;96.28;101586.13;4898115;29;20236;-73
2024/01/26 02:31:11;;;;;;;21.03;12.53;;;;;;;10.93;95.12;101589.13;4896988;29;20309;-74
2024/01/26 02:33:39;;;;;;;23.77;14.10;;;;;;;10.87;95.37;101581.69;4896454;29;20287;-72
2024/01/26 02:36:08;;;;;;;22.77;12.10;;;;;;;10.76;95.99;101582.53;4896028;29;20262;-73
2024/01/26 02:38:36;;;;;;;19.43;11.90;;;;;;;10.73;96.56;101580.09;4897441;29;20216;-73
2024/01/26 02:41:06;;;;;;;20.57;12.40;;;;;;;10.70;96.80;101575.06;4898361;29;20283;-73
2024/01/26 02:43:33;;;;;;;21.30;12.17;;;;;;;10.70;97.29;101567.09;4900733;29;20268;-73
2024/01/26 02:46:01;;;;;;;25.17;13.83;;;;;;;10.66;97.10;101570.97;4898847;29;20248;-73
2024/01/26 02:48:29;;;;;;;18.37;11.77;;;;;;;10.70;97.43;101568.91;4895868;29;21831;-73
2024/01/26 02:50:57;;;;;;;19.77;12.30;;;;;;;10.76;97.00;101576.38;4902433;29;20203;-73
2024/01/26 02:53:26;;;;;;;20.43;13.60;;;;;;;10.83;96.63;101578.41;4897406;29;21401;-73
2024/01/26 02:55:54;;;;;;;18.60;11.20;;;;;;;10.92;95.76;101582.97;4896713;29;20295;-73
2024/01/26 02:58:24;;;;;;;19.23;11.33;;;;;;;11.00;95.23;101585.00;4897967;29;20289;-73
2024/01/26 03:00:52;;;;;;;19.60;11.90;;;;;;;10.96;94.96;101586.25;4898794;29;20209;-72
2024/01/26 03:03:19;;;;;;;22.93;13.77;;;;;;;11.02;94.53;101576.94;4897826;29;20231;-72
2024/01/26 03:05:47;;;;;;;18.43;12.30;;;;;;;10.92;94.19;101574.19;4899560;29;20219;-74
2024/01/26 03:08:15;;;;;;;19.63;12.00;;;;;;;10.75;95.33;101572.03;4899147;29;20310;-72
2024/01/26 03:10:43;;;;;;;18.23;11.77;;;;;;;10.62;96.21;101566.88;4898116;29;20296;-72
2024/01/26 03:13:11;;;;;;;20.87;11.67;;;;;;;10.62;97.10;101568.69;4898860;29;20272;-72
2024/01/26 03:15:40;;;;;;;20.30;12.80;;;;;;;10.53;97.90;101572.91;4897159;29;20713;-72
2024/01/26 03:18:08;;;;;;;19.50;12.60;;;;;;;10.56;98.15;101559.38;4897687;29;20404;-72
2024/01/26 03:20:36;;;;;;;18.33;11.13;;;;;;;10.62;97.64;101555.41;4899331;29;20214;-72
2024/01/26 03:23:04;;;;;;;19.00;11.60;;;;;;;10.62;96.97;101550.13;4899052;29;20223;-73
2024/01/26 03:25:32;;;;;;;17.50;10.40;;;;;;;10.60;96.94;101550.22;4896282;29;20222;-73
2024/01/26 03:28:00;;;;;;;15.73;9.90;;;;;;;10.57;97.53;101553.97;4899555;29;20266;-73
2024/01/26 03:30:28;;;;;;;16.57;10.53;;;;;;;10.60;97.18;101554.69;4897912;29;20218;-72
2024/01/26 03:32:57;;;;;;;17.07;9.90;;;;;;;10.66;96.99;101548.88;4899338;29;20911;-73
2024/01/26 03:35:26;;;;;;;18.20;9.07;;;;;;;10.64;95.83;101551.69;4898735;29;20217;-73
2024/01/26 03:37:54;;;;;;;13.17;8.53;;;;;;;10.59;96.51;101556.50;4900325;29;20210;-73
2024/01/26 03:40:24;;;;;;;15.27;8.93;;;;;;;10.68;96.32;101553.13;4899580;29;20369;-73
2024/01/26 03:42:52;;;;;;;18.43;8.33;;;;;;;10.77;94.89;101551.53;4898935;29;20553;-73
2024/01/26 03:45:20;;;;;;;11.53;7.37;;;;;;;10.75;94.87;101549.00;4895355;29;20303;-73
2024/01/26 03:47:47;;;;;;;12.90;7.13;;;;;;;10.70;94.77;101553.84;4900720;29;21748;-73
2024/01/26 03:50:17;;;;;;;10.83;6.40;;;;;;;10.71;95.07;101552.88;4897556;29;20219;-73
2024/01/26 03:52:45;;;;;;;10.03;6.47;;;;;;;10.75;94.97;101554.31;4897727;29;20632;-73
2024/01/26 03:55:13;;;;;;;9.20;6.37;;;;;;;10.79;94.79;101550.44;4898433;29;20309;-73
2024/01/26 03:57:41;;;;;;;9.20;5.77;;;;;;;10.78;94.58;101551.41;4895440;29;20368;-73
2024/01/26 04:00:11;;;;;;;12.37;5.90;;;;;;;10.79;94.74;101547.81;4900405;29;20298;-73
2024/01/26 04:02:39;;;;;;;7.47;5.13;;;;;;;10.76;94.73;101553.34;4897870;29;20276;-74
2024/01/26 04:05:08;;;;;;;12.03;5.50;;;;;;;10.74;95.33;101547.31;4899438;29;20360;-73
2024/01/26 04:07:38;;;;;;;9.10;4.97;;;;;;;10.71;95.85;101558.19;4897843;29;20211;-72
2024/01/26 04:10:06;;;;;;;12.63;5.13;;;;;;;10.69;96.33;101549.50;4900149;29;20352;-73
2024/01/26 04:12:34;;;;;;;11.00;5.13;;;;;;;10.68;96.31;101542.50;4897309;29;20215;-73
2024/01/26 04:15:02;;;;;;;7.00;4.83;;;;;;;10.68;96.52;101547.81;4897156;29;20239;-73
2024/01/26 04:17:29;;;;;;;10.37;5.10;;;;;;;10.74;96.29;101552.63;4898588;29;20727;-72
2024/01/26 04:19:57;;;;;;;8.37;4.77;;;;;;;10.70;96.19;101551.19;4897573;29;20211;-72
2024/01/26 04:22:25;;;;;;;7.73;5.03;;;;;;;10.77;96.25;101563.00;4897828;29;20216;-73
2024/01/26 04:24:54;;;;;;;6.23;4.03;;;;;;;10.84;95.66;101574.78;4896855;29;21344;-73
2024/01/26 04:27:22;;;;;;;7.93;4.53;;;;;;;10.87;94.93;101568.41;4896817;29;20225;-72
2024/01/26 04:29:50;;;;;;;10.80;4.67;;;;;;;10.88;94.48;101562.13;4897392;29;20299;-73
2024/01/26 04:32:18;;;;;;;7.03;3.80;;;;;;;10.86;94.66;101561.41;4898050;29;20608;-73
2024/01/26 04:34:46;;;;;;;6.37;3.87;;;;;;;10.83;94.72;101554.53;4899982;29;20222;-72
2024/01/26 04:37:14;;;;;;;10.50;4.03;;;;;;;10.76;95.26;101561.31;4898121;29;20216;-72
2024/01/26 04:39:42;;;;;;;5.57;3.80;;;;;;;10.75;95.53;101554.31;4897835;29;21022;-72
2024/01/26 04:42:11;;;;;;;5.90;4.10;;;;;;;10.69;96.25;101557.47;4903159;29;20216;-72
2024/01/26 04:44:39;;;;;;;5.80;3.80;;;;;;;10.70;96.38;101560.97;4903317;29;20338;-73
2024/01/26 04:47:07;;;;;;;10.30;4.33;;;;;;;10.77;96.14;101557.69;4902223;29;20267;-73
2024/01/26 04:49:35;;;;;;;6.83;3.90;;;;;;;10.83;95.95;101562.50;4901701;29;20243;-74
2024/01/26 04:52:04;;;;;;;7.33;3.63;;;;;;;10.87;95.63;101563.94;4901643;29;20216;-73
2024/01/26 04:54:32;;;;;;;7.73;3.97;;;;;;;10.98;94.69;101556.94;4899843;29;20408;-73
2024/01/26 04:56:59;;;;;;;6.10;3.87;;;;;;;10.96;94.39;101556.22;4903327;29;20290;-73
2024/01/26 04:59:28;;;;;;;8.50;4.00;;;;;;;10.96;94.08;101537.63;4903389;29;20207;-73
2024/01/26 05:01:55;;;;;;;6.43;3.70;;;;;;;10.91;94.54;101543.28;4903285;29;20235;-74
2024/01/26 05:04:23;;;;;;;8.80;3.57;;;;;;;10.85;94.94;101533.19;4902824;29;20796;-73
2024/01/26 05:06:51;;;;;;;9.70;3.80;;;;;;;10.86;95.37;101537.53;4900136;29;20212;-74
2024/01/26 05:09:19;;;;;;;6.83;3.23;;;;;;;10.85;95.62;101542.00;4899013;29;20219;-73
2024/01/26 05:11:47;;;;;;;8.10;4.50;;;;;;;10.91;95.17;101533.53;4899678;29;20211;-74
2024/01/26 05:14:15;;;;;;;8.40;3.37;;;;;;;10.91;95.02;101527.38;4898291;29;20232;-73
2024/01/26 05:16:44;;;;;;;6.83;3.77;;;;;;;10.91;94.98;101528.22;4900387;29;20315;-73
2024/01/26 05:19:12;;;;;;;6.63;4.00;;;;;;;10.93;95.04;101518.31;4901704;29;20218;-73
2024/01/26 05:21:41;;;;;;;5.47;3.10;;;;;;;10.99;94.77;101526.78;4902657;29;20205;-73
2024/01/26 05:24:09;;;;;;;6.40;2.87;;;;;;;10.98;94.60;101527.75;4902031;29;20594;-73
2024/01/26 05:26:39;;;;;;;4.07;2.47;;;;;;;11.02;94.71;101523.84;4904262;29;20209;-73
2024/01/26 05:29:07;;;;;;;4.57;2.80;;;;;;;11.08;94.37;101518.06;4903001;29;20216;-73
2024/01/26 05:31:35;;;;;;;5.80;2.50;;;;;;;11.10;93.88;101522.25;4900591;29;20216;-72
2024/01/26 05:34:05;;;;;;;4.37;2.40;;;;;;;11.08;94.34;101523.38;4900914;29;20824;-72
2024/01/26 05:36:33;;;;;;;4.13;2.00;;;;;;;11.04;95.60;101524.56;4898553;29;20219;-73
2024/01/26 05:39:00;;;;;;;5.73;2.37;;;;;;;11.08;95.44;101529.50;4900094;29;20572;-72
2024/01/26 05:41:28;;;;;;;4.80;2.30;;;;;;;11.01;96.32;101517.69;4899640;29;20219;-73
2024/01/26 05:43:56;;;;;;;4.87;2.27;;;;;;;11.03;96.65;101520.22;4899067;29;20205;-73
2024/01/26 05:46:24;;;;;;;4.03;2.03;;;;;;;11.05;96.86;101524.44;4901908;29;20302;-73
2024/01/26 05:48:50;;;;;;;4.30;2.20;;;;;;;11.17;96.21;101539.34;4898578;29;20208;-72
2024/01/26 05:51:20;;;;;;;4.40;2.60;;;;;;;11.21;95.11;101537.31;4899571;29;20733;-72
2024/01/26 05:53:48;;;;;;;4.93;2.70;;;;;;;11.24;95.17;101535.25;4899865;29;21079;-72
2024/01/26 05:56:16;;;;;;;4.27;2.40;;;;;;;11.25;95.14;101544.91;4899820;29;20249;-72
2024/01/26 05:58:44;;;;;;;3.63;2.30;;;;;;;11.30;95.18;101548.00;4902228;29;20642;-71
2024/01/26 06:01:11;;;;;;;4.67;2.40;;;;;;;11.31;95.16;101554.16;4898738;29;20327;-72
2024/01/26 06:03:39;;;;;;;7.20;2.97;;;;;;;11.35;94.77;101541.47;4900954;29;20216;-73
2024/01/26 06:06:08;;;;;;;4.27;2.77;;;;;;;11.30;95.22;101549.81;4899058;29;20292;-72
2024/01/26 06:08:41;;;;;;;4.17;2.40;;;;;;;11.35;94.99;101544.97;4899526;29;20216;-73
2024/01/26 06:11:12;;;;;;;5.43;2.97;;;;;;;11.41;94.38;101543.63;4900408;29;20725;-72
2024/01/26 06:13:40;;;;;;;8.10;2.50;;;;;;;11.39;94.24;101538.44;4899634;29;20225;-72
2024/01/26 06:16:09;;;;;;;6.33;3.23;;;;;;;11.37;93.79;101551.00;4900801;29;20358;-72
2024/01/26 06:18:37;;;;;;;4.87;2.90;;;;;;;11.38;94.07;101552.69;4900643;29;20224;-72
2024/01/26 06:21:05;;;;;;;5.30;3.13;;;;;;;11.36;94.05;101541.34;4902713;29;20215;-73
2024/01/26 06:23:33;;;;;;;5.87;3.07;;;;;;;11.33;93.76;101533.66;4901096;29;20225;-74
2024/01/26 06:26:02;;;;;;;9.03;4.70;;;;;;;11.32;93.70;101537.28;4902194;29;20714;-73
2024/01/26 06:28:30;;;;;;;5.53;3.47;;;;;;;11.31;93.54;101535.56;4899004;29;20288;-73
2024/01/26 06:30:58;;;;;;;7.37;3.30;;;;;;;11.35;93.52;101547.63;4897927;29;20224;-73
2024/01/26 06:33:26;;;;;;;7.03;3.40;;;;;;;11.36;93.04;101533.38;4898927;29;20228;-72
2024/01/26 06:35:54;;;;;;;5.67;2.83;;;;;;;11.29;93.24;101527.72;4900223;29;21253;-72
2024/01/26 06:38:21;;;;;;;6.97;3.63;;;;;;;11.23;93.75;101530.06;4898706;29;20299;-72
2024/01/26 06:40:50;;;;;;;6.97;3.40;;;;;;;11.14;94.54;101528.16;4899032;29;20241;-74
2024/01/26 06:43:20;;;;;;;7.37;4.03;;;;;;;11.12;95.01;101520.31;4899130;29;20272;-73
2024/01/26 06:45:48;;;;;;;9.50;5.10;;;;;;;11.12;94.82;101522.13;4898103;29;20997;-74
2024/01/26 06:48:15;;;;;;;11.23;4.83;;;;;;;11.06;95.23;101527.94;4899287;29;20240;-73
2024/01/26 06:50:43;;;;;;;6.47;4.10;;;;;;;11.02;95.84;101524.69;4899141;29;20207;-72
2024/01/26 06:53:11;;;;;;;6.87;4.53;;;;;;;11.01;95.98;101520.34;4899724;29;20678;-73
2024/01/26 06:55:39;;;;;;;7.87;4.37;;;;;;;11.01;96.19;101522.16;4900995;29;20564;-73
2024/01/26 06:58:06;;;;;;;8.97;5.33;;;;;;;11.01;96.13;101523.00;4901788;29;20227;-73
2024/01/26 07:00:36;;;;;;;8.37;5.17;;;;;;;11.00;96.70;101529.28;4898719;29;20208;-73
2024/01/26 07:03:10;;;;;;;8.50;4.70;;;;;;;10.98;96.71;101544.50;4898228;29;20213;-73
2024/01/26 07:05:38;;;;;;;9.47;4.93;;;;;;;11.00;96.82;101550.50;4897928;29;20221;-72
2024/01/26 07:08:08;;;;;;;6.93;4.77;;;;;;;11.02;96.67;101529.16;4899045;29;20207;-72
2024/01/26 07:10:36;;;;;;;8.37;4.97;;;;;;;10.98;96.81;101527.75;4898670;29;20223;-72
2024/01/26 07:13:04;;;;;;;7.23;4.83;;;;;;;10.94;97.26;101524.47;4896411;29;21083;-73
2024/01/26 07:15:32;;;;;;;9.27;4.07;;;;;;;10.92;97.69;101511.34;4898173;29;20251;-73
2024/01/26 07:18:04;;;;;;;7.57;4.77;;;;;;;10.87;98.05;101513.53;4900387;29;20215;-65
2024/01/26 07:20:32;;;;;;;6.80;4.87;;;;;;;10.82;98.95;101513.03;4895378;29;20219;-63
2024/01/26 07:23:05;;;;;;;6.70;4.03;;;;;;;10.82;99.54;101513.03;4895383;29;20232;-62
2024/01/26 07:25:33;;;;;;;7.70;4.70;;;;;;;10.88;99.10;101504.59;4893754;29;20228;-64
2024/01/26 07:28:06;;;;;;;6.83;4.30;;;;;;;10.87;99.26;101505.56;4893743;29;20277;-66
2024/01/26 07:30:34;;;;;;;7.43;4.13;;;;;;;10.94;99.29;101520.00;4894976;29;21102;-63
2024/01/26 07:33:06;;;;;;;5.63;3.70;;;;;;;11.00;98.82;101517.81;4894191;29;20327;-63
2024/01/26 07:35:34;;;;;;;6.40;3.60;;;;;;;10.97;98.95;101510.97;4895992;29;20765;-63
2024/01/26 07:38:03;;;;;;;7.10;4.10;;;;;;;11.04;98.60;101524.56;4893905;29;20212;-63
2024/01/26 07:40:31;;;;;;;10.43;4.37;;;;;;;11.11;98.36;101518.63;4894940;29;20205;-65
2024/01/26 07:42:59;;;;;;;6.43;3.83;;;;;;;11.12;97.58;101508.84;4895320;29;20271;-62
2024/01/26 07:45:27;;;;;;;6.30;3.90;;;;;;;11.08;98.08;101502.13;4896876;29;20212;-63
2024/01/26 07:47:55;;;;;;;6.87;4.23;;;;;;;11.08;98.35;101497.63;4893701;29;20204;-63
2024/01/26 07:50:24;;;;;;;7.23;4.33;;;;;;;11.07;98.22;101481.88;4893838;29;20300;-66
2024/01/26 07:52:52;;;;;;;7.17;4.33;;;;;;;11.05;98.86;101478.50;4897203;29;20216;-63
2024/01/26 07:55:20;;;;;;;6.10;3.80;;;;;;;11.06;98.58;101464.25;4893162;29;20261;-63
2024/01/26 07:57:48;;;;;;;5.37;3.70;;;;;;;11.00;98.99;101451.47;4895524;29;20211;-64
2024/01/26 08:00:17;;;;;;;7.27;3.10;;;;;;;10.99;99.61;101460.41;4895829;29;20217;-63
2024/01/26 08:02:45;;;;;;;9.03;3.43;;;;;;;11.06;98.99;101458.94;4899917;29;20958;-64
2024/01/26 08:05:13;;;;;;;6.17;3.03;;;;;;;11.09;98.39;101456.84;4894875;29;20209;-64
2024/01/26 08:07:44;;;;;;;4.57;2.87;;;;;;;11.15;97.54;101466.13;4895093;29;20664;-63
2024/01/26 08:10:13;;;;;;;6.10;2.90;;;;;;;11.19;96.83;101483.47;4895546;29;20288;-64
2024/01/26 08:12:46;;;;;;;4.77;2.90;;;;;;;11.24;96.18;101468.03;4899340;29;20953;-63
2024/01/26 08:15:14;;;;;;;5.33;3.10;;;;;;;11.25;95.79;101470.56;4896412;29;20209;-64
2024/01/26 08:17:43;;;;;;;6.13;3.60;;;;;;;11.26;96.66;101474.03;4893397;29;20458;-62
2024/01/26 08:20:12;;;;;;;5.70;3.10;;;;;;;11.32;96.23;101479.69;4900782;29;20227;-64
2024/01/26 08:22:43;;;;;;;6.70;3.53;;;;;;;11.39;95.34;101460.56;4895496;29;20249;-66
2024/01/26 08:25:13;;;;;;;6.07;3.63;;;;;;;11.33;95.51;101453.97;4896862;29;20212;-63
2024/01/26 08:27:41;;;;;;;6.00;3.80;;;;;;;11.25;96.12;101445.81;4897031;29;20560;-63
2024/01/26 08:30:09;;;;;;;5.73;3.43;;;;;;;11.27;96.34;101459.78;4898384;29;20232;-65
2024/01/26 08:32:37;;;;;;;6.47;3.30;;;;;;;11.30;96.32;101462.19;4894530;29;20318;-66
2024/01/26 08:35:09;;;;;;;4.97;3.30;;;;;;;11.39;96.16;101465.88;4899069;29;20244;-66
2024/01/26 08:37:38;;;;;;;9.47;3.63;;;;;;;11.47;95.21;101456.31;4901444;29;20240;-64
2024/01/26 08:40:10;;;;;;;5.47;3.50;;;;;;;11.57;94.50;101457.22;4898999;29;20600;-65
2024/01/26 08:42:39;;;;;;;5.93;3.40;;;;;;;11.65;93.55;101454.75;4899349;29;20649;-65
2024/01/26 08:45:08;;;;;;;6.03;3.40;;;;;;;11.65;92.92;101451.25;4897916;29;20268;-63
2024/01/26 08:47:36;;;;;;;6.27;3.20;;;;;;;11.69;91.98;101445.53;4901391;29;20347;-64
2024/01/26 08:50:05;;;;;;;6.80;4.00;;;;;;;11.63;91.61;101429.25;4897942;29;20223;-63
2024/01/26 08:52:33;;;;;;;6.80;3.60;;;;;;;11.59;91.99;101446.47;4895868;29;20212;-65
2024/01/26 08:55:01;;;;;;;7.50;3.80;;;;;;;11.53;91.93;101445.16;4893473;29;21285;-64
2024/01/26 08:57:28;;;;;;;7.80;4.80;;;;;;;11.49;91.81;101433.13;4896460;29;20968;-65
2024/01/26 08:59:59;;;;;;;10.13;5.40;;;;;;;11.53;92.03;101429.22;4895793;29;21249;-65
2024/01/26 09:02:28;;;;;;;9.17;5.03;;;;;;;11.51;91.62;101423.22;4895217;29;20292;-64
2024/01/26 09:04:55;;;;;;;6.80;4.33;;;;;;;11.50;92.29;101418.88;4895471;29;20220;-63
2024/01/26 09:07:24;;;;;;;6.07;3.43;;;;;;;11.52;91.93;101416.91;4898028;29;20217;-65
2024/01/26 09:09:53;;;;;;;5.27;3.27;;;;;;;11.50;92.03;101424.19;4896403;29;20223;-64
2024/01/26 09:12:21;;;;;;;5.47;3.10;;;;;;;11.50;91.62;101421.53;4893937;29;20214;-63
2024/01/26 09:14:49;;;;;;;8.83;3.03;;;;;;;11.52;91.67;101416.09;4898138;29;20675;-63
2024/01/26 09:17:18;;;;;;;5.93;2.70;;;;;;;11.52;91.81;101416.09;4894890;29;20546;-63
2024/01/26 09:19:46;;;;;;;5.90;2.70;;;;;;;11.52;91.71;101400.97;4896278;29;20315;-64
2024/01/26 09:22:14;;;;;;;5.67;3.03;;;;;;;11.55;91.45;101395.41;4894257;29;20273;-63
2024/01/26 09:24:42;;;;;;;3.70;2.47;;;;;;;11.48;91.83;101386.28;4895861;29;20221;-63
2024/01/26 09:27:09;;;;;;;4.43;2.60;;;;;;;11.46;91.74;101390.88;4894294;29;20230;-65
2024/01/26 09:29:37;;;;;;;6.17;3.03;;;;;;;11.47;91.66;101391.72;4900211;29;20223;-65
2024/01/26 09:32:06;;;;;;;6.77;2.93;;;;;;;11.43;91.81;101385.00;4899535;29;20248;-63
2024/01/26 09:34:35;;;;;;;5.63;2.60;;;;;;;11.46;92.01;101382.06;4901252;29;20209;-64
2024/01/26 09:37:03;;;;;;;6.17;3.20;;;;;;;11.49;91.76;101384.47;4895185;29;20240;-64
2024/01/26 09:39:31;;;;;;;5.73;2.90;;;;;;;11.50;91.72;101387.00;4900490;29;20227;-65
2024/01/26 09:42:00;;;;;;;5.60;2.50;;;;;;;11.60;91.45;101401.16;4903462;29;20758;-64
2024/01/26 09:44:27;;;;;;;5.43;2.83;;;;;;;11.65;91.00;101401.59;4900225;29;20303;-63
2024/01/26 09:46:57;;;;;;;7.37;2.73;;;;;;;11.69;90.73;101404.84;4900122;29;20256;-65
2024/01/26 09:49:28;;;;;;;5.53;2.70;;;;;;;11.65;90.48;101401.59;4900492;29;20231;-64
2024/01/26 09:51:58;;;;;;;4.57;2.33;;;;;;;11.61;90.66;101394.84;4901501;29;20738;-62
2024/01/26 09:54:28;;;;;;;4.53;2.53;;;;;;;11.64;90.99;101402.56;4900638;29;20918;-64
2024/01/26 09:56:58;;;;;;;7.00;2.63;;;;;;;11.64;90.92;101405.22;4897949;29;20239;-64
2024/01/26 09:59:26;;;;;;;3.33;2.03;;;;;;;11.65;90.69;101406.91;4898053;29;20220;-64
2024/01/26 10:01:54;;;;;;;3.70;2.03;;;;;;;11.62;90.91;101401.84;4897028;29;20645;-64
2024/01/26 10:04:23;;;;;;;4.97;2.37;;;;;;;11.64;91.13;101409.69;4901054;29;20734;-64
2024/01/26 10:06:51;;;;;;;3.37;1.83;;;;;;;11.67;90.23;101404.97;4897752;29;20672;-64
2024/01/26 10:09:20;;;;;;;3.73;2.00;;;;;;;11.61;90.73;101392.19;4900143;29;20231;-65
2024/01/26 10:11:48;;;;;;;4.00;1.83;;;;;;;11.64;91.05;101389.28;4897914;29;20722;-64
2024/01/26 10:14:22;;;;;;;4.80;1.80;;;;;;;11.69;90.48;101392.41;4898579;29;20224;-63
2024/01/26 10:16:57;;;;;;;4.40;1.90;;;;;;;11.73;90.07;101387.66;4898283;29;20240;-64
2024/01/26 10:19:26;;;;;;;3.40;1.73;;;;;;;11.82;89.88;101402.81;4899419;29;20204;-64
2024/01/26 10:21:55;;;;;;;4.40;1.90;;;;;;;11.92;89.32;101406.38;4899073;29;20201;-64
2024/01/26 10:24:25;;;;;;;3.50;1.87;;;;;;;11.98;88.87;101410.28;4900666;29;20233;-64
2024/01/26 10:26:53;;;;;;;5.23;1.80;;;;;;;12.05;88.62;101419.41;4897481;29;20216;-63
2024/01/26 10:29:23;;;;;;;5.33;2.23;;;;;;;12.06;87.98;101410.47;4898848;29;20625;-64
2024/01/26 10:31:52;;;;;;;4.30;2.10;;;;;;;12.07;88.72;101414.81;4897598;29;20704;-64
2024/01/26 10:34:21;;;;;;;3.60;1.77;;;;;;;12.12;88.41;101404.63;4897320;29;20354;-64
2024/01/26 10:36:50;;;;;;;4.13;1.60;;;;;;;12.16;88.04;101411.34;4896321;29;20224;-64
2024/01/26 10:39:22;;;;;;;4.03;1.50;;;;;;;12.18;88.13;101398.75;4896657;29;20242;-64
2024/01/26 10:41:53;;;;;;;5.40;1.60;;;;;;;12.23;87.88;101385.88;4898630;29;20676;-63
2024/01/26 10:44:22;;;;;;;5.80;1.50;;;;;;;12.21;87.47;101371.06;4898908;29;20209;-64
2024/01/26 10:46:53;;;;;;;3.70;1.33;;;;;;;12.21;87.50;101360.41;4897812;29;20220;-63
2024/01/26 10:49:23;;;;;;;2.10;1.13;;;;;;;12.19;87.47;101368.53;4898477;29;20242;-63
2024/01/26 10:51:52;;;;;;;2.07;1.20;;;;;;;12.23;87.24;101364.59;4898592;29;20210;-64
2024/01/26 10:54:24;;;;;;;2.40;1.17;;;;;;;12.28;87.43;101366.88;4894718;29;20739;-65
2024/01/26 10:56:53;;;;;;;3.63;1.63;;;;;;;12.35;86.66;101363.53;4895721;29;20634;-64
2024/01/26 10:59:23;;;;;;;2.93;1.30;;;;;;;12.35;86.53;101363.53;4899174;29;20234;-64
2024/01/26 11:01:51;;;;;;;2.77;1.63;;;;;;;12.38;86.47;101368.56;4897448;29;20221;-64
2024/01/26 11:04:19;;;;;;;1.70;0.93;;;;;;;12.43;86.00;101368.97;4897964;29;20254;-66
2024/01/26 11:06:49;;;;;;;2.50;1.20;;;;;;;12.47;85.91;101366.06;4898755;29;20253;-64
2024/01/26 11:09:19;;;;;;;2.97;1.20;;;;;;;12.41;85.91;101354.97;4898767;29;20220;-64
2024/01/26 11:11:51;;;;;;;3.13;1.00;;;;;;;12.40;86.16;101352.47;4899177;29;20214;-65
2024/01/26 11:14:28;;;;;;;2.47;0.90;;;;;;;12.42;86.52;101347.84;4900401;29;20302;-64
2024/01/26 11:17:09;;;;;;;3.37;1.20;;;;;;;12.48;85.87;101343.81;4900879;29;20236;-67
2024/01/26 11:19:37;;;;;;;4.83;1.50;;;;;;;12.48;86.00;101349.13;4899514;29;20270;-64
2024/01/26 11:22:06;;;;;;;2.87;1.10;;;;;;;12.56;85.77;101350.09;4901893;29;20216;-64
2024/01/26 11:24:35;;;;;;;4.07;1.13;;;;;;;12.58;85.75;101352.59;4899474;29;20327;-64